Göttingen, Germany

03:04 CEST le 27 août 2016 (GMT +0200)
Am Hachweg | | Change Station

Alt. 531 ft 51.51 °N, 9.95 °E | Updated 2 minutes ago

Partly Cloudy
Partiellement nuageux
71.2 ° F
Paraît 76 ° F
N
0.6
Vent Variable Vent de SE
Gusts 1.2 mph

Aujourd'hui
Haut(e) -- | Bas -- ° F
--% Risque de précip.
Hier
Haut(e) -- | Bas -- ° F
Precip. -- pouce
Pression 30.09 pouce
Visibilité 6.2 Miles terrestres
Nuages Peu 10000 ft
indice de chaleur 76 ° F
Point de rosée 56 ° F
Humidité 57%
Précipitations 0.00 pouce
Profondeur de la couche neigeuse Non disponible.
6:25 AM 8:16 PM
Lune descendante, 29% visible
METAR ETHF 270020Z 28002KT 9999 FEW100 18/14 Q1019 BLU+
Pression 30.09 pouce
Visibilité 6.2 Miles terrestres
Nuages Peu 10000 ft
indice de chaleur 76 ° F
Point de rosée 56 ° F
Humidité 57%
Précipitations 0.00 pouce
Profondeur de la couche neigeuse Non disponible.
6:25 AM 8:16 PM
Lune descendante, 29% visible
METAR ETHF 270020Z 28002KT 9999 FEW100 18/14 Q1019 BLU+

10-Day Weather Forecast

×

Almanac

Astronomie

Aug. 27, 2016 Lever Coucher
Temps réel
Crépuscule civil
Crépuscule nautique
Crépuscule astronomique
Lune
Durée de lumière visible
Longueur du jour
Tomorrow will be .
, % of the Moon is Illuminated

Extrêmes aujourd'hui

Country Highs Country Lows

Community

WunderPhotos

Upload Photos

1,935,261 Photos téléchargées !

WunderBlog® & News

Nearby

Qualité de l'air

  Qualité de l'air Indice de la qualité de l'air Polluant
Not available.

Épaisseur de neige

Station Depth Altitude

Activité sismique

Ville Distance Mag. Time & Date
Minimum magnitude displayed is 2.5.

Températures des eaux côtières

Lieu Température

Stations

Stations météo à proximité

Emplacement de la station Température Refroidissement éolien Point de rosée Humidité Vent Precip. Alt. Mise à jour Type